Pulpca — PHMT — position and weather

sailwx.info

Track history (hours):
 
Tides and Currents Weather Stations Pressure Air Temp Water Temp Dewpoint Dewpoint Depression Visibility Wind Speed Wind Dir Waves Ship Positions

Pulpca

Last reported at 2017-Jul-21 20:30 UTC. Time now 2017-Jul-21 20:32 UTC.
Position N 51°24' E 003°08'.

Length 205 m; draft 8.1 m.

Type: Ship (hazmat cat A). MMSI: 245097000.

Date/timePositionNaut miles runAvg speedWind from/ knotsBaromVisibWave heightAir tempDewpointWater temp
2017-Jul-21 20:30N 51°24' E 003°08'714.4
2017-Jul-21 20:01N 51°28' E 002°59'917.9
2017-Jul-21 19:31N 51°34' E 003°09'918.4
2017-Jul-21 19:00N 51°43' E 003°13'1120.0
2017-Jul-21 18:27N 51°54' E 003°17'919.0
2017-Jul-21 18:00N 52°03' E 003°20'1019.9
2017-Jul-21 17:30N 52°12' E 003°23'815.4
2017-Jul-21 17:00N 52°20' E 003°26'1018.7
2017-Jul-21 16:28N 52°30' E 003°30'818.8
2017-Jul-21 16:01N 52°38' E 003°31'1019.5
2017-Jul-21 15:30N 52°46' E 003°41'17918.6
2017-Jul-21 05:50N 54°00' E 008°15'514.8
2017-Jul-21 05:30N 53°59' E 008°23'918.3
2017-Jul-21 04:59N 53°57' E 008°38'714.8
2017-Jul-21 04:30N 53°51' E 008°45'918.3
2017-Jul-21 04:00N 53°52' E 009°01'510.2
2017-Jul-21 03:30N 53°54' E 009°09'0 0.6
2017-Jul-21 03:00N 53°54' E 009°09'3 5.8
2017-Jul-21 02:30N 53°56' E 009°13'4 8.0
2017-Jul-21 02:00N 53°59' E 009°17'4 7.9
2017-Jul-21 01:30N 54°03' E 009°18'6 7.9
2017-Jul-21 00:48N 54°08' E 009°20'2 7.8
2017-Jul-21 00:30N 54°10' E 009°24'48 7.2
2017-Jul-20 17:49N 54°34' E 010°35'620.3
2017-Jul-20 17:30N 54°35' E 010°46'1020.7
2017-Jul-20 17:00N 54°36' E 011°03'1021.0
2017-Jul-20 16:30N 54°33' E 011°21'1121.1
2017-Jul-20 16:01N 54°29' E 011°37'3617.3
2017-Jul-20 13:56N 54°43' E 012°34'1119.8
2017-Jul-20 13:22N 54°49' E 012°51'820.7
2017-Jul-20 12:58N 54°52' E 013°04'1120.8
2017-Jul-20 12:26N 54°57' E 013°22'920.8
2017-Jul-20 12:00N 54°59' E 013°37'1020.8
2017-Jul-20 11:30N 55°03' E 013°54'1020.0
2017-Jul-20 11:01N 55°08' E 014°09'1020.8
2017-Jul-20 10:30N 55°16' E 014°20'1020.8
2017-Jul-20 10:00N 55°24' E 014°33'1020.2
2017-Jul-20 09:31N 55°30' E 014°47'1020.4
2017-Jul-20 09:00N 55°35' E 015°02'1020.8
2017-Jul-20 08:30N 55°41' E 015°18'1020.6
2017-Jul-20 08:01N 55°46' E 015°33'1020.8
2017-Jul-20 07:30N 55°51' E 015°49'1020.9
2017-Jul-20 07:00N 55°57' E 016°05'1020.6
2017-Jul-20 06:30N 56°02' E 016°21'1020.5
2017-Jul-20 06:01N 56°07' E 016°37'1020.5
2017-Jul-20 05:30N 56°13' E 016°52'1020.3
2017-Jul-20 05:01N 56°20' E 017°06'1020.5
2017-Jul-20 04:30N 56°26' E 017°21'1020.3
2017-Jul-20 04:01N 56°32' E 017°36'1020.6
2017-Jul-20 03:30N 56°38' E 017°51'1020.5
2017-Jul-20 03:00N 56°44' E 018°06'1020.1
2017-Jul-20 02:30N 56°50' E 018°21'1020.0
2017-Jul-20 02:00N 56°57' E 018°33'1020.2
2017-Jul-20 01:30N 57°06' E 018°44'13120.5
2017-Jul-19 19:07N 58°51' E 021°11'218.8
2017-Jul-19 19:00N 58°53' E 021°13'1020.5
2017-Jul-19 18:30N 59°01' E 021°25'1020.5
2017-Jul-19 18:00N 59°09' E 021°37'1020.5
2017-Jul-19 17:30N 59°15' E 021°53'1020.7
2017-Jul-19 17:00N 59°22' E 022°09'1020.7
2017-Jul-19 16:30N 59°28' E 022°25'1020.8
2017-Jul-19 16:01N 59°34' E 022°42'1020.5
2017-Jul-19 15:30N 59°40' E 022°58'713.0
2017-Jul-19 15:00N 59°46' E 023°01'4 7.2
2017-Jul-19 14:30N 59°49' E 022°56'1 1.4
2017-Jul-19 14:00N 59°49' E 022°57'0 0.0
2017-Jul-19 13:30N 59°49' E 022°57'0 0.0
2017-Jul-19 13:00N 59°49' E 022°57'0 0.0
2017-Jul-19 12:30N 59°49' E 022°57'0 0.0
2017-Jul-19 12:00N 59°49' E 022°57'0 0.0
2017-Jul-19 11:30N 59°49' E 022°57'0 0.0
2017-Jul-19 11:00N 59°49' E 022°57'0 0.0
2017-Jul-19 10:30N 59°49' E 022°57'0 0.0
2017-Jul-19 10:00N 59°49' E 022°57'0 0.0
2017-Jul-19 09:30N 59°49' E 022°57'1 1.3
2017-Jul-19 09:00N 59°49' E 022°56'815.7
2017-Jul-19 08:30N 59°42' E 023°05'1121.1
2017-Jul-19 08:00N 59°38' E 022°46'1121.6
2017-Jul-19 07:30N 59°35' E 022°25'1121.6
2017-Jul-19 07:00N 59°32' E 022°05'1121.2
2017-Jul-19 06:30N 59°31' E 021°44'1121.6
2017-Jul-19 06:01N 59°33' E 021°23'1121.6
2017-Jul-19 05:30N 59°34' E 021°02'1121.6
2017-Jul-19 05:00N 59°38' E 020°42'1019.9
2017-Jul-19 04:30N 59°44' E 020°26'1121.5
2017-Jul-19 04:00N 59°45' E 020°04'1121.7
2017-Jul-19 03:30N 59°45' E 019°43'1122.1
2017-Jul-19 03:00N 59°54' E 019°29'1122.2
2017-Jul-19 02:31N 60°02' E 019°14'1122.0
2017-Jul-19 02:01N 60°11' E 019°01'1122.2
2017-Jul-19 01:31N 60°22' E 019°00'918.9
2017-Jul-19 01:00N 60°31' E 019°06'1121.4
2017-Jul-19 00:30N 60°37' E 019°24'1121.4
2017-Jul-19 00:00N 60°43' E 019°42'1121.2
2017-Jul-18 23:30N 60°49' E 020°00'1121.2
2017-Jul-18 23:00N 60°55' E 020°19'1021.0
2017-Jul-18 22:30N 61°01' E 020°37'1020.9
2017-Jul-18 22:00N 61°06' E 020°55'918.1
2017-Jul-18 21:30N 61°07' E 021°14'510.3
2017-Jul-18 21:00N 61°07' E 021°25'1 2.0
2017-Jul-18 20:28N 61°08' E 021°26'0 0.0
2017-Jul-18 19:59N 61°08' E 021°26'0 0.0
2017-Jul-18 19:29N 61°08' E 021°26'0 0.0
2017-Jul-18 18:59N 61°08' E 021°26'0 0.0
2017-Jul-18 18:29N 61°08' E 021°26'0 0.0
2017-Jul-18 17:59N 61°08' E 021°26'0 0.0
2017-Jul-18 17:29N 61°08' E 021°26'0 0.0
2017-Jul-18 16:59N 61°08' E 021°26'0 0.0
2017-Jul-18 16:29N 61°08' E 021°26'0 0.0
2017-Jul-18 15:59N 61°08' E 021°26'0 0.0
2017-Jul-18 15:29N 61°08' E 021°26'0 0.0
2017-Jul-18 14:59N 61°08' E 021°26'0 0.0
2017-Jul-18 13:59N 61°08' E 021°26'0 0.0
2017-Jul-18 13:29N 61°08' E 021°26'0 0.0
2017-Jul-18 12:59N 61°08' E 021°26'0 0.0
2017-Jul-18 12:29N 61°08' E 021°26'0 0.0
2017-Jul-18 11:59N 61°08' E 021°26'0 0.0
2017-Jul-18 11:29N 61°08' E 021°26'0 0.0
2017-Jul-18 10:59N 61°08' E 021°26'0 0.0
2017-Jul-18 10:29N 61°08' E 021°26'0 0.0
2017-Jul-18 09:59N 61°08' E 021°26'0 0.0
2017-Jul-18 09:29N 61°08' E 021°26'0 0.0
2017-Jul-18 08:59N 61°08' E 021°26'0 0.0
2017-Jul-18 08:29N 61°08' E 021°26'0 0.0
2017-Jul-18 07:59N 61°08' E 021°26'0 0.0
2017-Jul-18 07:29N 61°08' E 021°26'0 0.0
2017-Jul-18 06:59N 61°08' E 021°26'0 0.0
2017-Jul-18 06:29N 61°08' E 021°26'0 0.0
2017-Jul-18 05:59N 61°08' E 021°26'0 0.0
2017-Jul-18 05:29N 61°08' E 021°26'0 0.0
2017-Jul-18 04:59N 61°08' E 021°26'0 0.0
2017-Jul-18 04:29N 61°08' E 021°26'0 0.0
2017-Jul-18 03:59N 61°08' E 021°26'0 1.0
2017-Jul-18 03:30N 61°07' E 021°25'5 9.8
2017-Jul-18 03:00N 61°06' E 021°16'714.2
2017-Jul-18 02:31N 61°08' E 021°01'1020.3
2017-Jul-18 02:00N 61°02' E 020°45'1020.3
2017-Jul-18 01:30N 60°56' E 020°28'1020.4
2017-Jul-18 01:00N 60°50' E 020°11'1020.4
2017-Jul-18 00:30N 60°44' E 019°54'1020.5
2017-Jul-18 00:00N 60°38' E 019°37'1020.5
2017-Jul-17 23:31N 60°32' E 019°20'1020.5
2017-Jul-17 23:01N 60°26' E 019°03'1020.3
2017-Jul-17 22:30N 60°16' E 019°03'1020.7
2017-Jul-17 22:00N 60°07' E 019°14'1020.6
2017-Jul-17 21:30N 59°59' E 019°27'1121.1
2017-Jul-17 21:01N 59°51' E 019°40'1122.3
2017-Jul-17 20:31N 59°43' E 019°56'1019.6
2017-Jul-17 20:01N 59°37' E 020°12'1020.4
2017-Jul-17 19:30N 59°36' E 020°32'1121.2
2017-Jul-17 19:01N 59°35' E 020°53'1121.1
2017-Jul-17 18:30N 59°34' E 021°13'1121.1
2017-Jul-17 18:00N 59°32' E 021°34'1121.4
2017-Jul-17 17:31N 59°31' E 021°55'1121.4
2017-Jul-17 17:00N 59°34' E 022°15'1121.3
2017-Jul-17 16:30N 59°37' E 022°36'1121.3
2017-Jul-17 16:01N 59°39' E 022°56'815.1
2017-Jul-17 15:30N 59°47' E 022°60'3 6.1
2017-Jul-17 14:59N 59°49' E 022°57'0 0.0
2017-Jul-17 14:29N 59°49' E 022°57'0 0.0
2017-Jul-17 13:59N 59°49' E 022°57'0 0.0
2017-Jul-17 13:23N 59°49' E 022°57'0 0.0
2017-Jul-17 12:59N 59°49' E 022°57'0 0.0
2017-Jul-17 12:29N 59°49' E 022°57'0 0.0
2017-Jul-17 11:59N 59°49' E 022°57'0 0.0
2017-Jul-17 11:29N 59°49' E 022°57'0 0.0
2017-Jul-17 10:59N 59°49' E 022°57'0 0.0
2017-Jul-17 10:29N 59°49' E 022°57'0 0.0
2017-Jul-17 09:59N 59°49' E 022°57'0 0.0
2017-Jul-17 09:30N 59°49' E 022°57'1 2.0
2017-Jul-17 09:00N 59°48' E 022°57'4 8.8
2017-Jul-17 08:30N 59°45' E 023°03'4 8.5
2017-Jul-17 08:00N 59°41' E 023°03'1019.5
2017-Jul-17 07:30N 59°33' E 022°52'1019.5
2017-Jul-17 07:01N 59°26' E 022°39'1020.1
2017-Jul-17 06:30N 59°20' E 022°23'1020.6
2017-Jul-17 06:00N 59°13' E 022°07'1020.7
2017-Jul-17 05:30N 59°07' E 021°51'1020.6
2017-Jul-17 05:00N 58°59' E 021°38'1020.8
2017-Jul-17 04:30N 58°51' E 021°26'23220.6
2017-Jul-16 17:12N 56°00' E 016°33'420.5
2017-Jul-16 16:59N 55°58' E 016°26'1020.4
2017-Jul-16 16:30N 55°53' E 016°11'1020.5
2017-Jul-16 16:00N 55°48' E 015°55'1020.4
2017-Jul-16 15:31N 55°43' E 015°40'1020.5
2017-Jul-16 15:00N 55°38' E 015°24'1020.7
2017-Jul-16 14:31N 55°33' E 015°08'1121.0
2017-Jul-16 14:00N 55°28' E 014°51'1020.9
2017-Jul-16 13:30N 55°21' E 014°37'1121.0
2017-Jul-16 13:00N 55°14' E 014°24'1019.2
2017-Jul-16 12:30N 55°10' E 014°09'1020.6
2017-Jul-16 12:00N 55°11' E 013°51'1020.7
2017-Jul-16 11:30N 55°12' E 013°32'1220.8
2017-Jul-16 10:56N 55°13' E 013°12'920.9
2017-Jul-16 10:31N 55°14' E 012°56'1019.7
2017-Jul-16 10:00N 55°18' E 012°40'817.1
2017-Jul-16 09:31N 55°26' E 012°40'713.9
2017-Jul-16 09:00N 55°33' E 012°42'4 7.5
2017-Jul-16 08:31N 55°37' E 012°42'4 7.3
2017-Jul-16 08:00N 55°40' E 012°41'816.1
2017-Jul-16 07:30N 55°48' E 012°42'816.1
2017-Jul-16 07:00N 55°56' E 012°43'917.7
2017-Jul-16 06:30N 56°04' E 012°36'917.9
2017-Jul-16 06:00N 56°12' E 012°27'1019.6
2017-Jul-16 05:30N 56°21' E 012°20'1020.1
2017-Jul-16 05:00N 56°30' E 012°13'1420.0
2017-Jul-16 04:17N 56°43' E 012°01'1519.6
2017-Jul-16 03:32N 56°55' E 011°46'219.3
2017-Jul-16 03:26N 56°57' E 011°44'919.4
2017-Jul-16 02:59N 57°05' E 011°40'919.6
2017-Jul-16 02:30N 57°14' E 011°34'1019.9
2017-Jul-16 02:01N 57°23' E 011°27'1018.9
2017-Jul-16 01:30N 57°31' E 011°17'1019.9
2017-Jul-16 01:01N 57°37' E 011°03'1019.7
2017-Jul-16 00:31N 57°44' E 010°50'1019.5
2017-Jul-16 00:00N 57°47' E 010°32'1120.6
2017-Jul-15 23:29N 57°45' E 010°12'1320.1
2017-Jul-15 22:49N 57°38' E 009°51'14319.7
2017-Jul-15 15:33N 55°51' E 006°58'1420.3
2017-Jul-15 14:51N 55°39' E 006°45'1720.2
2017-Jul-15 14:00N 55°24' E 006°30'2520.3
2017-Jul-15 12:46N 55°02' E 006°07'620.4
2017-Jul-15 12:28N 54°57' E 006°02'1020.5
2017-Jul-15 12:00N 54°49' E 005°53'1120.6
2017-Jul-15 11:29N 54°40' E 005°44'1020.6
2017-Jul-15 11:00N 54°31' E 005°35'1020.6
2017-Jul-15 10:30N 54°23' E 005°25'1020.6
2017-Jul-15 09:59N 54°14' E 005°16'1020.4
2017-Jul-15 09:29N 54°04' E 005°08'1020.5
2017-Jul-15 08:59N 53°55' E 005°01'1020.6
2017-Jul-15 08:30N 53°46' E 004°55'1020.6
2017-Jul-15 08:00N 53°36' E 004°49'917.4
2017-Jul-15 07:30N 53°28' E 004°44'815.0
2017-Jul-15 07:00N 53°21' E 004°38'1020.1
2017-Jul-15 06:30N 53°12' E 004°31'1020.2
2017-Jul-15 06:00N 53°03' E 004°24'1020.4
2017-Jul-15 05:31N 52°54' E 004°15'1020.3
2017-Jul-15 05:00N 52°46' E 004°06'1020.3
2017-Jul-15 04:31N 52°38' E 003°56'1020.2
2017-Jul-15 04:00N 52°30' E 003°44'1120.0
2017-Jul-15 03:29N 52°22' E 003°33'920.0
2017-Jul-15 03:00N 52°14' E 003°27'2643.2
2017-Jul-15 02:24N 51°48' E 003°18'0 0.0
2017-Jul-15 02:00N 51°48' E 003°18'4 7.8
2017-Jul-15 01:30N 51°44' E 003°16'1019.5
2017-Jul-15 01:00N 51°35' E 003°11'918.9
2017-Jul-15 00:30N 51°28' E 003°00'714.2
2017-Jul-15 00:01N 51°24' E 003°10'1020.0
2017-Jul-14 23:31N 51°25' E 003°26'816.5
2017-Jul-14 23:00N 51°26' E 003°39'918.2
2017-Jul-14 22:30N 51°21' E 003°50'917.3
2017-Jul-14 22:00N 51°26' E 004°02'612.7
2017-Jul-14 21:31N 51°24' E 004°11'713.5
2017-Jul-14 21:01N 51°18' E 004°17'2 4.5
2017-Jul-14 20:30N 51°16' E 004°17'0 0.0
2017-Jul-14 20:01N 51°16' E 004°17'1 2.9
2017-Jul-14 19:30N 51°16' E 004°14'1 1.1
2017-Jul-14 18:58N 51°15' E 004°14'0 0.0
2017-Jul-14 18:28N 51°15' E 004°14'0 0.0
2017-Jul-14 17:58N 51°15' E 004°14'0 0.0
2017-Jul-14 17:28N 51°15' E 004°14'0 0.0
2017-Jul-14 16:58N 51°15' E 004°14'0 0.0
2017-Jul-14 16:28N 51°15' E 004°14'0 0.0
2017-Jul-14 15:58N 51°15' E 004°14'0 0.0
2017-Jul-14 15:28N 51°15' E 004°14'0 0.0
2017-Jul-14 14:58N 51°15' E 004°14'0 0.0
2017-Jul-14 14:25N 51°15' E 004°14'0 0.0
2017-Jul-14 13:58N 51°15' E 004°14'0 0.0
2017-Jul-14 13:28N 51°15' E 004°14'0 0.0
2017-Jul-14 12:58N 51°15' E 004°14'0 0.0
2017-Jul-14 12:28N 51°15' E 004°14'0 0.0
2017-Jul-14 11:58N 51°15' E 004°14'0 0.0
2017-Jul-14 11:28N 51°15' E 004°14'0 0.0
2017-Jul-14 10:58N 51°15' E 004°14'0 0.0
2017-Jul-14 10:28N 51°15' E 004°14'0 0.0
2017-Jul-14 09:58N 51°15' E 004°14'0 0.0
2017-Jul-14 09:28N 51°15' E 004°14'0 0.0
2017-Jul-14 08:58N 51°15' E 004°14'0 0.0
2017-Jul-14 08:28N 51°15' E 004°14'0 0.0
2017-Jul-14 07:58N 51°15' E 004°14'0 0.0
2017-Jul-14 07:28N 51°15' E 004°14'0 0.0
2017-Jul-14 06:58N 51°15' E 004°14'0 0.1
2017-Jul-14 06:28N 51°15' E 004°14'0 0.1
2017-Jul-14 05:58N 51°15' E 004°14'0 0.0
2017-Jul-14 05:28N 51°15' E 004°14'0 0.0
2017-Jul-14 04:58N 51°15' E 004°14'0 0.0
2017-Jul-14 04:28N 51°15' E 004°14'0 0.0
2017-Jul-14 03:58N 51°15' E 004°14'0 0.0
2017-Jul-14 03:28N 51°15' E 004°14'0 0.0
2017-Jul-14 02:58N 51°15' E 004°14'0 0.0
2017-Jul-14 02:28N 51°15' E 004°14'0 0.0
2017-Jul-14 01:58N 51°15' E 004°14'0 0.0
2017-Jul-14 01:28N 51°15' E 004°14'0 0.0
2017-Jul-14 00:58N 51°15' E 004°14'0 0.0
2017-Jul-14 00:28N 51°15' E 004°14'0 0.0
2017-Jul-13 23:58N 51°15' E 004°14'0 0.0
2017-Jul-13 23:28N 51°15' E 004°14'0 0.0
2017-Jul-13 22:58N 51°15' E 004°14'0 0.0
2017-Jul-13 22:28N 51°15' E 004°14'0 0.0
2017-Jul-13 21:58N 51°15' E 004°14'0 0.0
2017-Jul-13 21:28N 51°15' E 004°14'0 0.0
2017-Jul-13 20:58N 51°15' E 004°14'0 0.0
2017-Jul-13 20:28N 51°15' E 004°14'0 0.0
2017-Jul-13 19:58N 51°15' E 004°14'0 0.0
2017-Jul-13 19:28N 51°15' E 004°14'0 0.0
2017-Jul-13 18:58N 51°15' E 004°14'0 0.0
2017-Jul-13 18:28N 51°15' E 004°14'0 0.0
2017-Jul-13 17:58N 51°15' E 004°14'0 0.0
2017-Jul-13 17:28N 51°15' E 004°14'0 0.0
2017-Jul-13 16:58N 51°15' E 004°14'0 0.0
2017-Jul-13 16:28N 51°15' E 004°14'0 0.0
2017-Jul-13 15:58N 51°15' E 004°14'0 0.0
2017-Jul-13 15:28N 51°15' E 004°14'0 0.0
2017-Jul-13 14:58N 51°15' E 004°14'0 0.0
2017-Jul-13 14:28N 51°15' E 004°14'0 0.0
2017-Jul-13 13:58N 51°15' E 004°14'0 0.0
2017-Jul-13 13:28N 51°15' E 004°14'0 0.0
2017-Jul-13 12:58N 51°15' E 004°14'0 0.0
2017-Jul-13 12:28N 51°15' E 004°14'0 0.0
2017-Jul-13 11:58N 51°15' E 004°14'0 0.0
2017-Jul-13 11:28N 51°15' E 004°14'0 0.0
2017-Jul-13 10:58N 51°15' E 004°14'0 0.0
2017-Jul-13 10:28N 51°15' E 004°14'0 0.0
2017-Jul-13 09:58N 51°15' E 004°14'0 0.0
2017-Jul-13 09:28N 51°15' E 004°14'0 0.0
2017-Jul-13 08:58N 51°15' E 004°14'0 0.0
2017-Jul-13 08:28N 51°15' E 004°14'0 0.0
2017-Jul-13 07:58N 51°15' E 004°14'0 0.0
2017-Jul-13 07:28N 51°15' E 004°14'0 0.0
2017-Jul-13 06:58N 51°15' E 004°14'0 0.0
2017-Jul-13 06:28N 51°15' E 004°14'0 0.0
2017-Jul-13 05:58N 51°15' E 004°14'0 0.0
2017-Jul-13 05:28N 51°15' E 004°14'0 0.0
2017-Jul-13 04:58N 51°15' E 004°14'0 0.0
2017-Jul-13 04:28N 51°15' E 004°14'0 0.0
2017-Jul-13 03:58N 51°15' E 004°14'0 0.0
2017-Jul-13 03:28N 51°15' E 004°14'0 0.0
2017-Jul-13 02:58N 51°15' E 004°14'0 0.0
2017-Jul-13 02:28N 51°15' E 004°14'0 0.0
2017-Jul-13 01:58N 51°15' E 004°14'0 0.0
2017-Jul-13 01:28N 51°15' E 004°14'0 0.0
2017-Jul-13 00:58N 51°15' E 004°14'0 0.0
2017-Jul-13 00:28N 51°15' E 004°14'0 0.0
2017-Jul-12 23:58N 51°15' E 004°14'0 0.0
2017-Jul-12 23:28N 51°15' E 004°14'0 0.0
2017-Jul-12 22:58N 51°15' E 004°14'0 0.0
2017-Jul-12 22:28N 51°15' E 004°14'0 0.0
2017-Jul-12 21:58N 51°15' E 004°14'0 0.0
2017-Jul-12 21:28N 51°15' E 004°14'0 0.0
2017-Jul-12 20:58N 51°15' E 004°14'0 0.0
2017-Jul-12 20:28N 51°15' E 004°14'0 0.0
2017-Jul-12 19:58N 51°15' E 004°14'0 0.0
2017-Jul-12 19:28N 51°15' E 004°14'0 0.0
2017-Jul-12 18:58N 51°15' E 004°14'0 0.0
2017-Jul-12 18:28N 51°15' E 004°14'0 0.0
2017-Jul-12 17:55N 51°15' E 004°14'0 0.0
2017-Jul-12 17:28N 51°15' E 004°14'0 0.0
2017-Jul-12 16:58N 51°15' E 004°14'0 0.0
2017-Jul-12 16:28N 51°15' E 004°14'0 0.0
2017-Jul-12 15:58N 51°15' E 004°14'0 0.0
2017-Jul-12 15:28N 51°15' E 004°14'0 0.0
2017-Jul-12 14:58N 51°15' E 004°14'0 0.0
2017-Jul-12 13:58N 51°15' E 004°14'0 0.0
2017-Jul-12 13:28N 51°15' E 004°14'0 0.0
2017-Jul-12 12:58N 51°15' E 004°14'0 0.0
2017-Jul-12 12:28N 51°15' E 004°14'0 0.0
2017-Jul-12 11:58N 51°15' E 004°14'0 0.0
2017-Jul-12 11:28N 51°15' E 004°14'0 0.0
2017-Jul-12 10:58N 51°15' E 004°14'0 0.0
2017-Jul-12 10:28N 51°15' E 004°14'0 0.0
2017-Jul-12 09:58N 51°15' E 004°14'0 0.0
2017-Jul-12 09:28N 51°15' E 004°14'0 0.0
2017-Jul-12 08:58N 51°15' E 004°14'0 0.0
2017-Jul-12 08:28N 51°15' E 004°14'0 0.0
2017-Jul-12 07:58N 51°15' E 004°14'0 0.0
2017-Jul-12 07:28N 51°15' E 004°14'0 0.0
2017-Jul-12 06:58N 51°15' E 004°14'0 0.0
2017-Jul-12 06:28N 51°15' E 004°14'0 0.0
2017-Jul-12 05:58N 51°15' E 004°14'0 0.0
2017-Jul-12 05:28N 51°15' E 004°14'0 0.0
2017-Jul-12 05:01N 51°15' E 004°14'0 0.0
2017-Jul-12 04:31N 51°15' E 004°14'0 0.0
2017-Jul-12 04:01N 51°15' E 004°14'0 0.0
2017-Jul-12 03:31N 51°15' E 004°14'0 0.0
2017-Jul-12 03:01N 51°15' E 004°14'0 0.0
2017-Jul-12 02:31N 51°15' E 004°14'0 0.0
2017-Jul-12 02:01N 51°15' E 004°14'0 0.0
2017-Jul-12 01:31N 51°15' E 004°14'0 0.0
2017-Jul-12 01:01N 51°15' E 004°14'0 0.0
2017-Jul-12 00:31N 51°15' E 004°14'0 0.0
2017-Jul-12 00:01N 51°15' E 004°14'0 0.0
2017-Jul-11 23:31N 51°15' E 004°14'0 0.0
2017-Jul-11 23:01N 51°15' E 004°14'0 0.0
2017-Jul-11 22:31N 51°15' E 004°14'0 0.0
2017-Jul-11 22:00N 51°15' E 004°14'0 0.0
2017-Jul-11 21:31N 51°15' E 004°14'0 0.0
2017-Jul-11 21:01N 51°15' E 004°14'0 0.0
2017-Jul-11 20:31N 51°15' E 004°14'  
Track history (hours):
 
Tides and Currents Weather Stations Pressure Air Temp Water Temp Dewpoint Dewpoint Depression Visibility Wind Speed Wind Dir Waves Ship Positions

Pulpca

Last reported at 2017-Jul-21 20:30 UTC. Time now 2017-Jul-21 20:32 UTC.
Position N 51°24' E 003°08'.

Length 205 m; draft 8.1 m.

Type: Ship (hazmat cat A). MMSI: 245097000.

Date/timePositionNaut miles runAvg speedWind from/ knotsBaromVisibWave heightAir tempDewpointWater temp
2017-Jul-21 20:30N 51°24' E 003°08'714.4
2017-Jul-21 20:01N 51°28' E 002°59'917.9
2017-Jul-21 19:31N 51°34' E 003°09'918.4
2017-Jul-21 19:00N 51°43' E 003°13'1120.0
2017-Jul-21 18:27N 51°54' E 003°17'919.0
2017-Jul-21 18:00N 52°03' E 003°20'1019.9
2017-Jul-21 17:30N 52°12' E 003°23'815.4
2017-Jul-21 17:00N 52°20' E 003°26'1018.7
2017-Jul-21 16:28N 52°30' E 003°30'818.8
2017-Jul-21 16:01N 52°38' E 003°31'1019.5
2017-Jul-21 15:30N 52°46' E 003°41'17918.6
2017-Jul-21 05:50N 54°00' E 008°15'514.8
2017-Jul-21 05:30N 53°59' E 008°23'918.3
2017-Jul-21 04:59N 53°57' E 008°38'714.8
2017-Jul-21 04:30N 53°51' E 008°45'918.3
2017-Jul-21 04:00N 53°52' E 009°01'510.2
2017-Jul-21 03:30N 53°54' E 009°09'0 0.6
2017-Jul-21 03:00N 53°54' E 009°09'3 5.8
2017-Jul-21 02:30N 53°56' E 009°13'4 8.0
2017-Jul-21 02:00N 53°59' E 009°17'4 7.9
2017-Jul-21 01:30N 54°03' E 009°18'6 7.9
2017-Jul-21 00:48N 54°08' E 009°20'2 7.8
2017-Jul-21 00:30N 54°10' E 009°24'48 7.2
2017-Jul-20 17:49N 54°34' E 010°35'620.3
2017-Jul-20 17:30N 54°35' E 010°46'1020.7
2017-Jul-20 17:00N 54°36' E 011°03'1021.0
2017-Jul-20 16:30N 54°33' E 011°21'1121.1
2017-Jul-20 16:01N 54°29' E 011°37'3617.3
2017-Jul-20 13:56N 54°43' E 012°34'1119.8
2017-Jul-20 13:22N 54°49' E 012°51'820.7
2017-Jul-20 12:58N 54°52' E 013°04'1120.8
2017-Jul-20 12:26N 54°57' E 013°22'920.8
2017-Jul-20 12:00N 54°59' E 013°37'1020.8
2017-Jul-20 11:30N 55°03' E 013°54'1020.0
2017-Jul-20 11:01N 55°08' E 014°09'1020.8
2017-Jul-20 10:30N 55°16' E 014°20'1020.8
2017-Jul-20 10:00N 55°24' E 014°33'1020.2
2017-Jul-20 09:31N 55°30' E 014°47'1020.4
2017-Jul-20 09:00N 55°35' E 015°02'1020.8
2017-Jul-20 08:30N 55°41' E 015°18'1020.6
2017-Jul-20 08:01N 55°46' E 015°33'1020.8
2017-Jul-20 07:30N 55°51' E 015°49'1020.9
2017-Jul-20 07:00N 55°57' E 016°05'1020.6
2017-Jul-20 06:30N 56°02' E 016°21'1020.5
2017-Jul-20 06:01N 56°07' E 016°37'1020.5
2017-Jul-20 05:30N 56°13' E 016°52'1020.3
2017-Jul-20 05:01N 56°20' E 017°06'1020.5
2017-Jul-20 04:30N 56°26' E 017°21'1020.3
2017-Jul-20 04:01N 56°32' E 017°36'1020.6
2017-Jul-20 03:30N 56°38' E 017°51'1020.5
2017-Jul-20 03:00N 56°44' E 018°06'1020.1
2017-Jul-20 02:30N 56°50' E 018°21'1020.0
2017-Jul-20 02:00N 56°57' E 018°33'1020.2
2017-Jul-20 01:30N 57°06' E 018°44'13120.5
2017-Jul-19 19:07N 58°51' E 021°11'218.8
2017-Jul-19 19:00N 58°53' E 021°13'1020.5
2017-Jul-19 18:30N 59°01' E 021°25'1020.5
2017-Jul-19 18:00N 59°09' E 021°37'1020.5
2017-Jul-19 17:30N 59°15' E 021°53'1020.7
2017-Jul-19 17:00N 59°22' E 022°09'1020.7
2017-Jul-19 16:30N 59°28' E 022°25'1020.8
2017-Jul-19 16:01N 59°34' E 022°42'1020.5
2017-Jul-19 15:30N 59°40' E 022°58'713.0
2017-Jul-19 15:00N 59°46' E 023°01'4 7.2
2017-Jul-19 14:30N 59°49' E 022°56'1 1.4
2017-Jul-19 14:00N 59°49' E 022°57'0 0.0
2017-Jul-19 13:30N 59°49' E 022°57'0 0.0
2017-Jul-19 13:00N 59°49' E 022°57'0 0.0
2017-Jul-19 12:30N 59°49' E 022°57'0 0.0
2017-Jul-19 12:00N 59°49' E 022°57'0 0.0
2017-Jul-19 11:30N 59°49' E 022°57'0 0.0
2017-Jul-19 11:00N 59°49' E 022°57'0 0.0
2017-Jul-19 10:30N 59°49' E 022°57'0 0.0
2017-Jul-19 10:00N 59°49' E 022°57'0 0.0
2017-Jul-19 09:30N 59°49' E 022°57'1 1.3
2017-Jul-19 09:00N 59°49' E 022°56'815.7
2017-Jul-19 08:30N 59°42' E 023°05'1121.1
2017-Jul-19 08:00N 59°38' E 022°46'1121.6
2017-Jul-19 07:30N 59°35' E 022°25'1121.6
2017-Jul-19 07:00N 59°32' E 022°05'1121.2
2017-Jul-19 06:30N 59°31' E 021°44'1121.6
2017-Jul-19 06:01N 59°33' E 021°23'1121.6
2017-Jul-19 05:30N 59°34' E 021°02'1121.6
2017-Jul-19 05:00N 59°38' E 020°42'1019.9
2017-Jul-19 04:30N 59°44' E 020°26'1121.5
2017-Jul-19 04:00N 59°45' E 020°04'1121.7
2017-Jul-19 03:30N 59°45' E 019°43'1122.1
2017-Jul-19 03:00N 59°54' E 019°29'1122.2
2017-Jul-19 02:31N 60°02' E 019°14'1122.0
2017-Jul-19 02:01N 60°11' E 019°01'1122.2
2017-Jul-19 01:31N 60°22' E 019°00'918.9
2017-Jul-19 01:00N 60°31' E 019°06'1121.4
2017-Jul-19 00:30N 60°37' E 019°24'1121.4
2017-Jul-19 00:00N 60°43' E 019°42'1121.2
2017-Jul-18 23:30N 60°49' E 020°00'1121.2
2017-Jul-18 23:00N 60°55' E 020°19'1021.0
2017-Jul-18 22:30N 61°01' E 020°37'1020.9
2017-Jul-18 22:00N 61°06' E 020°55'918.1
2017-Jul-18 21:30N 61°07' E 021°14'510.3
2017-Jul-18 21:00N 61°07' E 021°25'1 2.0
2017-Jul-18 20:28N 61°08' E 021°26'0 0.0
2017-Jul-18 19:59N 61°08' E 021°26'0 0.0
2017-Jul-18 19:29N 61°08' E 021°26'0 0.0
2017-Jul-18 18:59N 61°08' E 021°26'0 0.0
2017-Jul-18 18:29N 61°08' E 021°26'0 0.0
2017-Jul-18 17:59N 61°08' E 021°26'0 0.0
2017-Jul-18 17:29N 61°08' E 021°26'0 0.0
2017-Jul-18 16:59N 61°08' E 021°26'0 0.0
2017-Jul-18 16:29N 61°08' E 021°26'0 0.0
2017-Jul-18 15:59N 61°08' E 021°26'0 0.0
2017-Jul-18 15:29N 61°08' E 021°26'0 0.0
2017-Jul-18 14:59N 61°08' E 021°26'0 0.0
2017-Jul-18 13:59N 61°08' E 021°26'0 0.0
2017-Jul-18 13:29N 61°08' E 021°26'0 0.0
2017-Jul-18 12:59N 61°08' E 021°26'0 0.0
2017-Jul-18 12:29N 61°08' E 021°26'0 0.0
2017-Jul-18 11:59N 61°08' E 021°26'0 0.0
2017-Jul-18 11:29N 61°08' E 021°26'0 0.0
2017-Jul-18 10:59N 61°08' E 021°26'0 0.0
2017-Jul-18 10:29N 61°08' E 021°26'0 0.0
2017-Jul-18 09:59N 61°08' E 021°26'0 0.0
2017-Jul-18 09:29N 61°08' E 021°26'0 0.0
2017-Jul-18 08:59N 61°08' E 021°26'0 0.0
2017-Jul-18 08:29N 61°08' E 021°26'0 0.0
2017-Jul-18 07:59N 61°08' E 021°26'0 0.0
2017-Jul-18 07:29N 61°08' E 021°26'0 0.0
2017-Jul-18 06:59N 61°08' E 021°26'0 0.0
2017-Jul-18 06:29N 61°08' E 021°26'0 0.0
2017-Jul-18 05:59N 61°08' E 021°26'0 0.0
2017-Jul-18 05:29N 61°08' E 021°26'0 0.0
2017-Jul-18 04:59N 61°08' E 021°26'0 0.0
2017-Jul-18 04:29N 61°08' E 021°26'0 0.0
2017-Jul-18 03:59N 61°08' E 021°26'0 1.0
2017-Jul-18 03:30N 61°07' E 021°25'5 9.8
2017-Jul-18 03:00N 61°06' E 021°16'714.2
2017-Jul-18 02:31N 61°08' E 021°01'1020.3
2017-Jul-18 02:00N 61°02' E 020°45'1020.3
2017-Jul-18 01:30N 60°56' E 020°28'1020.4
2017-Jul-18 01:00N 60°50' E 020°11'1020.4
2017-Jul-18 00:30N 60°44' E 019°54'1020.5
2017-Jul-18 00:00N 60°38' E 019°37'1020.5
2017-Jul-17 23:31N 60°32' E 019°20'1020.5
2017-Jul-17 23:01N 60°26' E 019°03'1020.3
2017-Jul-17 22:30N 60°16' E 019°03'1020.7
2017-Jul-17 22:00N 60°07' E 019°14'1020.6
2017-Jul-17 21:30N 59°59' E 019°27'1121.1
2017-Jul-17 21:01N 59°51' E 019°40'1122.3
2017-Jul-17 20:31N 59°43' E 019°56'1019.6
2017-Jul-17 20:01N 59°37' E 020°12'1020.4
2017-Jul-17 19:30N 59°36' E 020°32'1121.2
2017-Jul-17 19:01N 59°35' E 020°53'1121.1
2017-Jul-17 18:30N 59°34' E 021°13'1121.1
2017-Jul-17 18:00N 59°32' E 021°34'1121.4
2017-Jul-17 17:31N 59°31' E 021°55'1121.4
2017-Jul-17 17:00N 59°34' E 022°15'1121.3
2017-Jul-17 16:30N 59°37' E 022°36'1121.3
2017-Jul-17 16:01N 59°39' E 022°56'815.1
2017-Jul-17 15:30N 59°47' E 022°60'3 6.1
2017-Jul-17 14:59N 59°49' E 022°57'0 0.0
2017-Jul-17 14:29N 59°49' E 022°57'0 0.0
2017-Jul-17 13:59N 59°49' E 022°57'0 0.0
2017-Jul-17 13:23N 59°49' E 022°57'0 0.0
2017-Jul-17 12:59N 59°49' E 022°57'0 0.0
2017-Jul-17 12:29N 59°49' E 022°57'0 0.0
2017-Jul-17 11:59N 59°49' E 022°57'0 0.0
2017-Jul-17 11:29N 59°49' E 022°57'0 0.0
2017-Jul-17 10:59N 59°49' E 022°57'0 0.0
2017-Jul-17 10:29N 59°49' E 022°57'0 0.0
2017-Jul-17 09:59N 59°49' E 022°57'0 0.0
2017-Jul-17 09:30N 59°49' E 022°57'1 2.0
2017-Jul-17 09:00N 59°48' E 022°57'4 8.8
2017-Jul-17 08:30N 59°45' E 023°03'4 8.5
2017-Jul-17 08:00N 59°41' E 023°03'1019.5
2017-Jul-17 07:30N 59°33' E 022°52'1019.5
2017-Jul-17 07:01N 59°26' E 022°39'1020.1
2017-Jul-17 06:30N 59°20' E 022°23'1020.6
2017-Jul-17 06:00N 59°13' E 022°07'1020.7
2017-Jul-17 05:30N 59°07' E 021°51'1020.6
2017-Jul-17 05:00N 58°59' E 021°38'1020.8
2017-Jul-17 04:30N 58°51' E 021°26'23220.6
2017-Jul-16 17:12N 56°00' E 016°33'420.5
2017-Jul-16 16:59N 55°58' E 016°26'1020.4
2017-Jul-16 16:30N 55°53' E 016°11'1020.5
2017-Jul-16 16:00N 55°48' E 015°55'1020.4
2017-Jul-16 15:31N 55°43' E 015°40'1020.5
2017-Jul-16 15:00N 55°38' E 015°24'1020.7
2017-Jul-16 14:31N 55°33' E 015°08'1121.0
2017-Jul-16 14:00N 55°28' E 014°51'1020.9
2017-Jul-16 13:30N 55°21' E 014°37'1121.0
2017-Jul-16 13:00N 55°14' E 014°24'1019.2
2017-Jul-16 12:30N 55°10' E 014°09'1020.6
2017-Jul-16 12:00N 55°11' E 013°51'1020.7
2017-Jul-16 11:30N 55°12' E 013°32'1220.8
2017-Jul-16 10:56N 55°13' E 013°12'920.9
2017-Jul-16 10:31N 55°14' E 012°56'1019.7
2017-Jul-16 10:00N 55°18' E 012°40'817.1
2017-Jul-16 09:31N 55°26' E 012°40'713.9
2017-Jul-16 09:00N 55°33' E 012°42'4 7.5
2017-Jul-16 08:31N 55°37' E 012°42'4 7.3
2017-Jul-16 08:00N 55°40' E 012°41'816.1
2017-Jul-16 07:30N 55°48' E 012°42'816.1
2017-Jul-16 07:00N 55°56' E 012°43'917.7
2017-Jul-16 06:30N 56°04' E 012°36'917.9
2017-Jul-16 06:00N 56°12' E 012°27'1019.6
2017-Jul-16 05:30N 56°21' E 012°20'1020.1
2017-Jul-16 05:00N 56°30' E 012°13'1420.0
2017-Jul-16 04:17N 56°43' E 012°01'1519.6
2017-Jul-16 03:32N 56°55' E 011°46'219.3
2017-Jul-16 03:26N 56°57' E 011°44'919.4
2017-Jul-16 02:59N 57°05' E 011°40'919.6
2017-Jul-16 02:30N 57°14' E 011°34'1019.9
2017-Jul-16 02:01N 57°23' E 011°27'1018.9
2017-Jul-16 01:30N 57°31' E 011°17'1019.9
2017-Jul-16 01:01N 57°37' E 011°03'1019.7
2017-Jul-16 00:31N 57°44' E 010°50'1019.5
2017-Jul-16 00:00N 57°47' E 010°32'1120.6
2017-Jul-15 23:29N 57°45' E 010°12'1320.1
2017-Jul-15 22:49N 57°38' E 009°51'14319.7
2017-Jul-15 15:33N 55°51' E 006°58'1420.3
2017-Jul-15 14:51N 55°39' E 006°45'1720.2
2017-Jul-15 14:00N 55°24' E 006°30'2520.3
2017-Jul-15 12:46N 55°02' E 006°07'620.4
2017-Jul-15 12:28N 54°57' E 006°02'1020.5
2017-Jul-15 12:00N 54°49' E 005°53'1120.6
2017-Jul-15 11:29N 54°40' E 005°44'1020.6
2017-Jul-15 11:00N 54°31' E 005°35'1020.6
2017-Jul-15 10:30N 54°23' E 005°25'1020.6
2017-Jul-15 09:59N 54°14' E 005°16'1020.4
2017-Jul-15 09:29N 54°04' E 005°08'1020.5
2017-Jul-15 08:59N 53°55' E 005°01'1020.6
2017-Jul-15 08:30N 53°46' E 004°55'1020.6
2017-Jul-15 08:00N 53°36' E 004°49'917.4
2017-Jul-15 07:30N 53°28' E 004°44'815.0
2017-Jul-15 07:00N 53°21' E 004°38'1020.1
2017-Jul-15 06:30N 53°12' E 004°31'1020.2
2017-Jul-15 06:00N 53°03' E 004°24'1020.4
2017-Jul-15 05:31N 52°54' E 004°15'1020.3
2017-Jul-15 05:00N 52°46' E 004°06'1020.3
2017-Jul-15 04:31N 52°38' E 003°56'1020.2
2017-Jul-15 04:00N 52°30' E 003°44'1120.0
2017-Jul-15 03:29N 52°22' E 003°33'920.0
2017-Jul-15 03:00N 52°14' E 003°27'2643.2
2017-Jul-15 02:24N 51°48' E 003°18'0 0.0
2017-Jul-15 02:00N 51°48' E 003°18'4 7.8
2017-Jul-15 01:30N 51°44' E 003°16'1019.5
2017-Jul-15 01:00N 51°35' E 003°11'918.9
2017-Jul-15 00:30N 51°28' E 003°00'714.2
2017-Jul-15 00:01N 51°24' E 003°10'1020.0
2017-Jul-14 23:31N 51°25' E 003°26'816.5
2017-Jul-14 23:00N 51°26' E 003°39'918.2
2017-Jul-14 22:30N 51°21' E 003°50'917.3
2017-Jul-14 22:00N 51°26' E 004°02'612.7
2017-Jul-14 21:31N 51°24' E 004°11'713.5
2017-Jul-14 21:01N 51°18' E 004°17'2 4.5
2017-Jul-14 20:30N 51°16' E 004°17'0 0.0
2017-Jul-14 20:01N 51°16' E 004°17'1 2.9
2017-Jul-14 19:30N 51°16' E 004°14'1 1.1
2017-Jul-14 18:58N 51°15' E 004°14'0 0.0
2017-Jul-14 18:28N 51°15' E 004°14'0 0.0
2017-Jul-14 17:58N 51°15' E 004°14'0 0.0
2017-Jul-14 17:28N 51°15' E 004°14'0 0.0
2017-Jul-14 16:58N 51°15' E 004°14'0 0.0
2017-Jul-14 16:28N 51°15' E 004°14'0 0.0
2017-Jul-14 15:58N 51°15' E 004°14'0 0.0
2017-Jul-14 15:28N 51°15' E 004°14'0 0.0
2017-Jul-14 14:58N 51°15' E 004°14'0 0.0
2017-Jul-14 14:25N 51°15' E 004°14'0 0.0
2017-Jul-14 13:58N 51°15' E 004°14'0 0.0
2017-Jul-14 13:28N 51°15' E 004°14'0 0.0
2017-Jul-14 12:58N 51°15' E 004°14'0 0.0
2017-Jul-14 12:28N 51°15' E 004°14'0 0.0
2017-Jul-14 11:58N 51°15' E 004°14'0 0.0
2017-Jul-14 11:28N 51°15' E 004°14'0 0.0
2017-Jul-14 10:58N 51°15' E 004°14'0 0.0
2017-Jul-14 10:28N 51°15' E 004°14'0 0.0
2017-Jul-14 09:58N 51°15' E 004°14'0 0.0
2017-Jul-14 09:28N 51°15' E 004°14'0 0.0
2017-Jul-14 08:58N 51°15' E 004°14'0 0.0
2017-Jul-14 08:28N 51°15' E 004°14'0 0.0
2017-Jul-14 07:58N 51°15' E 004°14'0 0.0
2017-Jul-14 07:28N 51°15' E 004°14'0 0.0
2017-Jul-14 06:58N 51°15' E 004°14'0 0.1
2017-Jul-14 06:28N 51°15' E 004°14'0 0.1
2017-Jul-14 05:58N 51°15' E 004°14'0 0.0
2017-Jul-14 05:28N 51°15' E 004°14'0 0.0
2017-Jul-14 04:58N 51°15' E 004°14'0 0.0
2017-Jul-14 04:28N 51°15' E 004°14'0 0.0
2017-Jul-14 03:58N 51°15' E 004°14'0 0.0
2017-Jul-14 03:28N 51°15' E 004°14'0 0.0
2017-Jul-14 02:58N 51°15' E 004°14'0 0.0
2017-Jul-14 02:28N 51°15' E 004°14'0 0.0
2017-Jul-14 01:58N 51°15' E 004°14'0 0.0
2017-Jul-14 01:28N 51°15' E 004°14'0 0.0
2017-Jul-14 00:58N 51°15' E 004°14'0 0.0
2017-Jul-14 00:28N 51°15' E 004°14'0 0.0
2017-Jul-13 23:58N 51°15' E 004°14'0 0.0
2017-Jul-13 23:28N 51°15' E 004°14'0 0.0
2017-Jul-13 22:58N 51°15' E 004°14'0 0.0
2017-Jul-13 22:28N 51°15' E 004°14'0 0.0
2017-Jul-13 21:58N 51°15' E 004°14'0 0.0
2017-Jul-13 21:28N 51°15' E 004°14'0 0.0
2017-Jul-13 20:58N 51°15' E 004°14'0 0.0
2017-Jul-13 20:28N 51°15' E 004°14'0 0.0
2017-Jul-13 19:58N 51°15' E 004°14'0 0.0
2017-Jul-13 19:28N 51°15' E 004°14'0 0.0
2017-Jul-13 18:58N 51°15' E 004°14'0 0.0
2017-Jul-13 18:28N 51°15' E 004°14'0 0.0
2017-Jul-13 17:58N 51°15' E 004°14'0 0.0
2017-Jul-13 17:28N 51°15' E 004°14'0 0.0
2017-Jul-13 16:58N 51°15' E 004°14'0 0.0
2017-Jul-13 16:28N 51°15' E 004°14'0 0.0
2017-Jul-13 15:58N 51°15' E 004°14'0 0.0
2017-Jul-13 15:28N 51°15' E 004°14'0 0.0
2017-Jul-13 14:58N 51°15' E 004°14'0 0.0
2017-Jul-13 14:28N 51°15' E 004°14'0 0.0
2017-Jul-13 13:58N 51°15' E 004°14'0 0.0
2017-Jul-13 13:28N 51°15' E 004°14'0 0.0
2017-Jul-13 12:58N 51°15' E 004°14'0 0.0
2017-Jul-13 12:28N 51°15' E 004°14'0 0.0
2017-Jul-13 11:58N 51°15' E 004°14'0 0.0
2017-Jul-13 11:28N 51°15' E 004°14'0 0.0
2017-Jul-13 10:58N 51°15' E 004°14'0 0.0
2017-Jul-13 10:28N 51°15' E 004°14'0 0.0
2017-Jul-13 09:58N 51°15' E 004°14'0 0.0
2017-Jul-13 09:28N 51°15' E 004°14'0 0.0
2017-Jul-13 08:58N 51°15' E 004°14'0 0.0
2017-Jul-13 08:28N 51°15' E 004°14'0 0.0
2017-Jul-13 07:58N 51°15' E 004°14'0 0.0
2017-Jul-13 07:28N 51°15' E 004°14'0 0.0
2017-Jul-13 06:58N 51°15' E 004°14'0 0.0
2017-Jul-13 06:28N 51°15' E 004°14'0 0.0
2017-Jul-13 05:58N 51°15' E 004°14'0 0.0
2017-Jul-13 05:28N 51°15' E 004°14'0 0.0
2017-Jul-13 04:58N 51°15' E 004°14'0 0.0
2017-Jul-13 04:28N 51°15' E 004°14'0 0.0
2017-Jul-13 03:58N 51°15' E 004°14'0 0.0
2017-Jul-13 03:28N 51°15' E 004°14'0 0.0
2017-Jul-13 02:58N 51°15' E 004°14'0 0.0
2017-Jul-13 02:28N 51°15' E 004°14'0 0.0
2017-Jul-13 01:58N 51°15' E 004°14'0 0.0
2017-Jul-13 01:28N 51°15' E 004°14'0 0.0
2017-Jul-13 00:58N 51°15' E 004°14'0 0.0
2017-Jul-13 00:28N 51°15' E 004°14'0 0.0
2017-Jul-12 23:58N 51°15' E 004°14'0 0.0
2017-Jul-12 23:28N 51°15' E 004°14'0 0.0
2017-Jul-12 22:58N 51°15' E 004°14'0 0.0
2017-Jul-12 22:28N 51°15' E 004°14'0 0.0
2017-Jul-12 21:58N 51°15' E 004°14'0 0.0
2017-Jul-12 21:28N 51°15' E 004°14'0 0.0
2017-Jul-12 20:58N 51°15' E 004°14'0 0.0
2017-Jul-12 20:28N 51°15' E 004°14'0 0.0
2017-Jul-12 19:58N 51°15' E 004°14'0 0.0
2017-Jul-12 19:28N 51°15' E 004°14'0 0.0
2017-Jul-12 18:58N 51°15' E 004°14'0 0.0
2017-Jul-12 18:28N 51°15' E 004°14'0 0.0
2017-Jul-12 17:55N 51°15' E 004°14'0 0.0
2017-Jul-12 17:28N 51°15' E 004°14'0 0.0
2017-Jul-12 16:58N 51°15' E 004°14'0 0.0
2017-Jul-12 16:28N 51°15' E 004°14'0 0.0
2017-Jul-12 15:58N 51°15' E 004°14'0 0.0
2017-Jul-12 15:28N 51°15' E 004°14'0 0.0
2017-Jul-12 14:58N 51°15' E 004°14'0 0.0
2017-Jul-12 13:58N 51°15' E 004°14'0 0.0
2017-Jul-12 13:28N 51°15' E 004°14'0 0.0
2017-Jul-12 12:58N 51°15' E 004°14'0 0.0
2017-Jul-12 12:28N 51°15' E 004°14'0 0.0
2017-Jul-12 11:58N 51°15' E 004°14'0 0.0
2017-Jul-12 11:28N 51°15' E 004°14'0 0.0
2017-Jul-12 10:58N 51°15' E 004°14'0 0.0
2017-Jul-12 10:28N 51°15' E 004°14'0 0.0
2017-Jul-12 09:58N 51°15' E 004°14'0 0.0
2017-Jul-12 09:28N 51°15' E 004°14'0 0.0
2017-Jul-12 08:58N 51°15' E 004°14'0 0.0
2017-Jul-12 08:28N 51°15' E 004°14'0 0.0
2017-Jul-12 07:58N 51°15' E 004°14'0 0.0
2017-Jul-12 07:28N 51°15' E 004°14'0 0.0
2017-Jul-12 06:58N 51°15' E 004°14'0 0.0
2017-Jul-12 06:28N 51°15' E 004°14'0 0.0
2017-Jul-12 05:58N 51°15' E 004°14'0 0.0
2017-Jul-12 05:28N 51°15' E 004°14'0 0.0
2017-Jul-12 05:01N 51°15' E 004°14'0 0.0
2017-Jul-12 04:31N 51°15' E 004°14'0 0.0
2017-Jul-12 04:01N 51°15' E 004°14'0 0.0
2017-Jul-12 03:31N 51°15' E 004°14'0 0.0
2017-Jul-12 03:01N 51°15' E 004°14'0 0.0
2017-Jul-12 02:31N 51°15' E 004°14'0 0.0
2017-Jul-12 02:01N 51°15' E 004°14'0 0.0
2017-Jul-12 01:31N 51°15' E 004°14'0 0.0
2017-Jul-12 01:01N 51°15' E 004°14'0 0.0
2017-Jul-12 00:31N 51°15' E 004°14'0 0.0
2017-Jul-12 00:01N 51°15' E 004°14'0 0.0
2017-Jul-11 23:31N 51°15' E 004°14'0 0.0
2017-Jul-11 23:01N 51°15' E 004°14'0 0.0
2017-Jul-11 22:31N 51°15' E 004°14'0 0.0
2017-Jul-11 22:00N 51°15' E 004°14'0 0.0
2017-Jul-11 21:31N 51°15' E 004°14'0 0.0
2017-Jul-11 21:01N 51°15' E 004°14'0 0.0
2017-Jul-11 20:31N 51°15' E 004°14'  

Dump ship's entire track history